createdAt,value
2019-04-03T00:04:04.669Z,99.90
2019-04-03T00:09:11.159Z,99.90
2019-04-03T00:14:17.741Z,99.90
2019-04-03T00:19:23.923Z,99.90
2019-04-03T00:24:29.987Z,99.90
2019-04-03T00:29:36.163Z,99.90
2019-04-03T00:34:43.286Z,99.90
2019-04-03T00:39:49.354Z,99.90
2019-04-03T00:44:55.526Z,99.90
2019-04-03T00:50:01.710Z,99.90
2019-04-03T00:55:07.867Z,99.90
2019-04-03T01:00:16.238Z,99.90
2019-04-03T01:05:22.370Z,99.90
2019-04-03T01:10:29.780Z,99.90
2019-04-03T01:15:36.321Z,99.90
2019-04-03T01:20:42.447Z,99.90
2019-04-03T01:25:48.630Z,99.90
2019-04-03T01:30:54.717Z,99.90
2019-04-03T01:36:00.778Z,99.90
2019-04-03T01:41:07.183Z,99.90
2019-04-03T01:46:13.186Z,99.90
2019-04-03T01:51:19.281Z,99.90
2019-04-03T01:56:25.354Z,99.90
2019-04-03T02:01:31.521Z,99.90
2019-04-03T02:06:37.605Z,99.90
2019-04-03T02:11:43.713Z,99.90
2019-04-03T02:16:49.882Z,99.90
2019-04-03T02:21:57.988Z,99.90
2019-04-03T02:27:03.662Z,99.90
2019-04-03T02:32:10.840Z,99.90
2019-04-03T02:37:17.727Z,99.90
2019-04-03T02:42:24.010Z,99.90
2019-04-03T02:47:32.538Z,99.90
2019-04-03T02:52:37.902Z,99.90
2019-04-03T02:57:44.255Z,99.90
2019-04-03T03:02:50.367Z,99.90
2019-04-03T03:07:57.832Z,99.90
2019-04-03T03:13:04.040Z,99.90
2019-04-03T03:18:10.538Z,99.90
2019-04-03T03:23:16.713Z,99.90
2019-04-03T03:28:23.723Z,99.90
2019-04-03T03:33:36.337Z,99.90
2019-04-03T03:38:39.485Z,99.90
2019-04-03T03:43:46.475Z,99.90
2019-04-03T03:48:53.140Z,99.90
2019-04-03T03:53:59.816Z,99.90
2019-04-03T03:59:07.438Z,99.90
2019-04-03T04:04:15.682Z,99.90
2019-04-03T04:09:22.448Z,99.90
2019-04-03T04:14:28.557Z,99.90
2019-04-03T04:19:35.812Z,99.90
2019-04-03T04:24:41.941Z,99.90
2019-04-03T04:29:48.174Z,99.90
2019-04-03T04:34:54.400Z,99.90
2019-04-03T04:40:00.526Z,99.90
2019-04-03T04:45:07.240Z,99.90
2019-04-03T04:50:14.679Z,99.90
2019-04-03T04:55:20.802Z,99.90
2019-04-03T05:00:29.407Z,99.90
2019-04-03T05:05:34.805Z,99.90
2019-04-03T05:10:40.952Z,99.90
2019-04-03T05:15:47.239Z,99.90
2019-04-03T05:20:54.463Z,99.90
2019-04-03T05:26:01.898Z,99.90
2019-04-03T05:31:08.899Z,99.90
2019-04-03T05:36:17.091Z,99.90
2019-04-03T05:41:23.023Z,99.90
2019-04-03T05:46:29.198Z,99.90
2019-04-03T05:51:36.226Z,99.90
2019-04-03T05:56:42.980Z,99.90
2019-04-03T06:01:49.636Z,99.90
2019-04-03T06:06:55.799Z,99.90
2019-04-03T06:12:01.873Z,99.90
2019-04-03T06:17:08.055Z,99.90
2019-04-03T06:22:16.342Z,99.90
2019-04-03T06:27:22.142Z,99.90
2019-04-03T06:32:29.176Z,99.90
2019-04-03T06:37:35.924Z,99.90
2019-04-03T06:42:44.130Z,99.90
2019-04-03T06:47:50.132Z,99.90
2019-04-03T06:52:56.397Z,99.90
2019-04-03T06:58:02.574Z,99.90
2019-04-03T07:03:08.608Z,99.60
2019-04-03T07:08:14.687Z,97.10
2019-04-03T07:13:21.105Z,95.60
2019-04-03T07:18:27.610Z,94.00
2019-04-03T07:23:33.711Z,92.90
2019-04-03T07:28:41.592Z,91.80
2019-04-03T07:33:47.707Z,91.50
2019-04-03T07:38:53.799Z,90.70
2019-04-03T07:43:59.633Z,90.20
2019-04-03T07:49:06.784Z,89.80
2019-04-03T07:54:13.820Z,89.40
2019-04-03T07:59:20.035Z,89.10
2019-04-03T08:04:26.098Z,88.40
2019-04-03T08:09:32.249Z,86.80
2019-04-03T08:14:40.471Z,86.00
2019-04-03T08:19:46.255Z,83.70
2019-04-03T08:24:53.717Z,84.20
2019-04-03T08:30:00.112Z,83.10
2019-04-03T08:35:19.825Z,82.30
2019-04-03T08:40:15.354Z,81.40
2019-04-03T08:45:22.162Z,80.00
2019-04-03T08:50:29.132Z,76.90
2019-04-03T08:55:35.417Z,75.80
2019-04-03T09:00:41.810Z,78.60
2019-04-03T09:05:50.563Z,74.70
2019-04-03T09:10:55.977Z,82.00
2019-04-03T09:16:02.199Z,77.60
2019-04-03T09:21:08.487Z,78.90
2019-04-03T09:26:14.564Z,77.10
2019-04-03T09:31:20.836Z,74.90
2019-04-03T09:36:26.942Z,70.30
2019-04-03T09:41:32.969Z,57.20
2019-04-03T09:46:39.048Z,54.30
2019-04-03T09:51:45.317Z,50.50
2019-04-03T09:56:57.852Z,49.90
2019-04-03T10:01:59.244Z,48.60
2019-04-03T10:07:05.390Z,44.50
2019-04-03T10:12:11.634Z,44.70
2019-04-03T10:17:17.750Z,42.10
2019-04-03T10:22:24.179Z,40.20
2019-04-03T10:27:30.918Z,44.20
2019-04-03T10:32:37.036Z,47.60
2019-04-03T10:37:45.635Z,42.60
2019-04-03T10:42:50.967Z,40.80
2019-04-03T10:47:57.269Z,39.30
2019-04-03T10:53:03.367Z,37.70
2019-04-03T10:58:09.458Z,38.70
2019-04-03T11:03:15.690Z,37.40
2019-04-03T11:08:21.906Z,38.80
2019-04-03T11:13:27.961Z,37.90
2019-04-03T11:18:34.005Z,38.70
2019-04-03T11:23:44.308Z,38.90
2019-04-03T11:28:48.362Z,37.50
2019-04-03T11:33:55.030Z,37.60
2019-04-03T11:39:11.066Z,40.10
2019-04-03T11:44:09.932Z,39.60
2019-04-03T11:49:15.998Z,41.20
2019-04-03T11:54:22.067Z,43.40
2019-04-03T11:59:28.408Z,40.00
2019-04-03T12:04:34.844Z,36.80
2019-04-03T12:09:40.983Z,36.00
2019-04-03T12:14:49.142Z,37.00
2019-04-03T12:19:54.895Z,37.40
2019-04-03T12:25:00.961Z,37.20
2019-04-03T12:30:08.295Z,34.90
2019-04-03T12:35:15.510Z,37.40
2019-04-03T12:40:21.966Z,35.40
2019-04-03T12:45:28.362Z,34.70
2019-04-03T12:50:35.734Z,33.80
2019-04-03T12:55:42.923Z,35.80
2019-04-03T13:00:49.203Z,36.40
2019-04-03T13:05:55.311Z,34.50
2019-04-03T13:11:01.684Z,33.70
2019-04-03T13:16:10.257Z,36.10
2019-04-03T13:21:15.592Z,32.90
2019-04-03T13:26:24.098Z,33.00
2019-04-03T13:31:29.519Z,35.50
2019-04-03T13:36:35.745Z,35.80
2019-04-03T13:41:43.132Z,34.30
2019-04-03T13:46:52.263Z,36.80
2019-04-03T13:52:01.548Z,40.90
2019-04-03T13:57:05.379Z,41.00
2019-04-03T14:02:13.639Z,42.10
2019-04-03T14:07:19.367Z,43.30
2019-04-03T14:12:25.879Z,42.60
2019-04-03T14:17:32.270Z,44.00
2019-04-03T14:22:38.605Z,44.50
2019-04-03T14:27:44.802Z,44.30
2019-04-03T14:32:53.397Z,42.50
2019-04-03T14:38:00.216Z,42.10
2019-04-03T14:43:06.638Z,39.50
2019-04-03T14:48:12.827Z,43.20
2019-04-03T14:53:20.222Z,45.10
2019-04-03T14:58:27.582Z,45.90
2019-04-03T15:03:34.882Z,46.20
2019-04-03T15:08:41.055Z,47.20
2019-04-03T15:13:47.410Z,47.10
2019-04-03T15:18:54.874Z,47.40
2019-04-03T15:24:01.017Z,48.60
2019-04-03T15:29:07.290Z,49.50
2019-04-03T15:34:13.903Z,49.00
2019-04-03T15:39:20.422Z,50.20
2019-04-03T15:44:28.371Z,49.60
2019-04-03T15:49:35.501Z,51.00
2019-04-03T15:54:41.894Z,50.80
2019-04-03T15:59:51.690Z,52.90
2019-04-03T16:04:58.474Z,53.40
2019-04-03T16:10:04.910Z,53.40
2019-04-03T16:15:11.588Z,52.90
2019-04-03T16:20:18.317Z,53.40
2019-04-03T16:25:24.466Z,53.70
2019-04-03T16:30:30.717Z,54.60
2019-04-03T16:35:37.415Z,55.00
2019-04-03T16:40:43.929Z,57.90
2019-04-03T16:45:51.342Z,58.20
2019-04-03T16:50:59.691Z,61.30
2019-04-03T16:56:07.003Z,65.80
2019-04-03T17:01:14.737Z,68.50
2019-04-03T17:06:21.229Z,69.20
2019-04-03T17:11:27.563Z,68.00
2019-04-03T17:16:33.695Z,70.50
2019-04-03T17:21:41.171Z,72.90
2019-04-03T17:26:51.664Z,72.10
2019-04-03T17:31:57.605Z,75.50
2019-04-03T17:37:03.242Z,76.50
2019-04-03T17:42:09.439Z,78.20
2019-04-03T17:47:15.495Z,81.50
2019-04-03T17:52:21.799Z,83.40
2019-04-03T17:57:27.981Z,87.40
2019-04-03T18:02:34.103Z,90.50
2019-04-03T18:07:40.167Z,90.10
2019-04-03T18:12:46.213Z,91.10
2019-04-03T18:17:52.295Z,91.10
2019-04-03T18:22:58.419Z,91.90
2019-04-03T18:28:05.381Z,91.90
2019-04-03T18:33:11.691Z,91.60
2019-04-03T18:38:17.887Z,93.30
2019-04-03T18:43:24.275Z,93.80
2019-04-03T18:48:30.583Z,92.80
2019-04-03T18:53:36.686Z,93.30
2019-04-03T18:58:44.099Z,93.80
2019-04-03T19:03:51.487Z,94.30
2019-04-03T19:09:09.286Z,94.60
2019-04-03T19:14:05.550Z,94.90
2019-04-03T19:19:11.747Z,94.60
2019-04-03T19:24:17.811Z,95.10
2019-04-03T19:29:23.922Z,95.40
2019-04-03T19:34:30.092Z,95.40
2019-04-03T19:39:37.794Z,94.90
2019-04-03T19:44:44.037Z,95.30
2019-04-03T19:49:50.184Z,95.60
2019-04-03T19:54:56.266Z,96.00
2019-04-03T20:00:03.174Z,95.80
2019-04-03T20:05:10.427Z,95.80
2019-04-03T20:10:16.697Z,95.60
2019-04-03T20:15:23.396Z,96.00
2019-04-03T20:21:10.138Z,95.70
2019-04-03T20:26:16.469Z,96.20
2019-04-03T20:31:23.145Z,95.80
2019-04-03T20:36:29.210Z,96.20
2019-04-03T20:41:35.360Z,95.20
2019-04-03T20:46:41.374Z,94.50
2019-04-03T20:51:48.727Z,94.80
2019-04-03T20:56:57.975Z,93.00
2019-04-03T21:02:02.924Z,91.70
2019-04-03T21:07:09.081Z,92.00
2019-04-03T21:12:15.157Z,93.30
2019-04-03T21:17:23.898Z,94.60
2019-04-03T21:22:30.240Z,94.70
2019-04-03T21:27:39.799Z,95.30
2019-04-03T21:32:44.361Z,95.30
2019-04-03T21:37:50.433Z,95.70
2019-04-03T21:42:57.900Z,96.30
2019-04-03T21:48:04.628Z,97.00
2019-04-03T21:53:10.733Z,96.30
2019-04-03T21:58:16.654Z,96.90
2019-04-03T22:03:22.819Z,97.60
2019-04-03T22:08:29.175Z,97.20
2019-04-03T22:13:38.278Z,97.10
2019-04-03T22:18:43.623Z,97.40
2019-04-03T22:23:51.462Z,98.10
2019-04-03T22:28:57.615Z,98.50
2019-04-03T22:34:03.755Z,98.20
2019-04-03T22:39:10.268Z,98.70
2019-04-03T22:44:17.100Z,97.80
2019-04-03T22:49:24.039Z,98.60
2019-04-03T22:54:30.199Z,98.30
2019-04-03T22:59:38.149Z,98.60
2019-04-03T23:04:46.378Z,98.20
2019-04-03T23:09:52.654Z,98.70
2019-04-03T23:14:58.865Z,99.00
2019-04-03T23:20:05.127Z,99.40
2019-04-03T23:25:11.289Z,99.20
2019-04-03T23:30:17.490Z,99.20
2019-04-03T23:35:23.623Z,99.60
2019-04-03T23:40:29.759Z,99.30
2019-04-03T23:45:35.914Z,99.20
2019-04-03T23:50:42.295Z,99.30
2019-04-03T23:55:48.430Z,99.70
